Time;durP1;ratioP1;P1;durP2;ratioP2;P2;SDS_P1;SDS_P2;PMS_P1;PMS_P2;Temp;Humidity;BMP_temperature;BMP_pressure;BME280_temperature;BME280_humidity;BME280_pressure;Samples;Min_cycle;Max_cycle;Signal;HPM_P1;HPM_P2
2023/08/26 00:01:31;;;;;;;25.13;13.15;;;17.30;99.90;;;;;;5002924;28;20036;-67
2023/08/26 00:03:57;;;;;;;19.63;13.68;;;17.30;99.90;;;;;;5007148;28;20026;-67
2023/08/26 00:06:22;;;;;;;25.23;13.35;;;17.20;99.90;;;;;;5006096;28;20411;-67
2023/08/26 00:08:51;;;;;;;31.38;13.65;;;17.20;99.90;;;;;;4997594;28;20252;-67
2023/08/26 00:11:16;;;;;;;28.15;13.55;;;17.10;99.90;;;;;;5003271;28;20041;-67
2023/08/26 00:13:42;;;;;;;23.02;13.70;;;17.10;99.90;;;;;;5000597;28;20034;-67
2023/08/26 00:16:07;;;;;;;22.02;14.55;;;17.10;99.90;;;;;;5005042;28;20546;-67
2023/08/26 00:18:33;;;;;;;22.05;14.65;;;17.10;99.90;;;;;;5007710;28;20116;-67
2023/08/26 00:20:59;;;;;;;21.98;13.60;;;17.00;99.90;;;;;;5007197;28;20668;-68
2023/08/26 00:23:24;;;;;;;21.80;13.80;;;17.00;99.90;;;;;;4997207;28;20045;-67
2023/08/26 00:25:50;;;;;;;26.20;16.27;;;17.00;99.90;;;;;;4998487;28;20915;-67
2023/08/26 00:28:16;;;;;;;30.75;16.33;;;16.90;99.90;;;;;;5001969;28;20038;-67
2023/08/26 00:30:42;;;;;;;26.90;16.50;;;16.90;99.90;;;;;;4976120;28;20132;-67
2023/08/26 00:33:07;;;;;;;28.58;16.00;;;16.90;99.90;;;;;;5006254;28;20655;-67
2023/08/26 00:35:33;;;;;;;26.13;17.00;;;16.90;99.90;;;;;;5006075;28;20040;-67
2023/08/26 00:37:58;;;;;;;27.70;17.10;;;16.90;99.90;;;;;;5001706;28;20496;-67
2023/08/26 00:40:24;;;;;;;30.23;17.00;;;16.90;99.90;;;;;;4997892;28;20163;-67
2023/08/26 00:42:54;;;;;;;24.50;15.23;;;16.90;99.90;;;;;;5000809;28;20076;-68
2023/08/26 00:45:20;;;;;;;28.40;17.08;;;16.90;99.90;;;;;;4998957;28;20633;-66
2023/08/26 00:47:46;;;;;;;37.33;16.65;;;16.90;99.90;;;;;;4997835;28;20042;-67
2023/08/26 00:50:11;;;;;;;25.70;17.15;;;16.90;99.90;;;;;;5002736;28;20471;-67
2023/08/26 00:52:38;;;;;;;24.50;17.02;;;17.00;99.90;;;;;;4998530;28;21228;-67
2023/08/26 00:55:05;;;;;;;28.80;16.63;;;17.00;99.90;;;;;;5000072;28;20035;-67
2023/08/26 00:57:31;;;;;;;34.72;18.60;;;17.00;99.90;;;;;;4997948;28;20061;-67
2023/08/26 00:59:56;;;;;;;27.45;17.98;;;17.00;99.90;;;;;;4997114;28;20057;-67
2023/08/26 01:02:22;;;;;;;23.98;14.07;;;17.10;99.90;;;;;;5000805;28;20037;-67
2023/08/26 01:04:48;;;;;;;28.63;16.73;;;17.10;99.90;;;;;;5003590;28;20133;-67
2023/08/26 01:07:13;;;;;;;22.02;14.73;;;17.10;99.90;;;;;;5001486;28;20649;-67
2023/08/26 01:09:39;;;;;;;25.80;14.35;;;17.10;99.90;;;;;;5004464;28;20037;-67
2023/08/26 01:12:26;;;;;;;26.38;14.57;;;17.10;99.90;;;;;;4996815;28;20034;-67
2023/08/26 01:15:01;;;;;;;22.00;15.30;;;17.20;99.90;;;;;;5002421;28;20495;-67
2023/08/26 01:17:26;;;;;;;28.23;15.02;;;17.10;99.90;;;;;;5004193;28;20042;-67
2023/08/26 01:19:54;;;;;;;23.77;14.57;;;17.10;99.90;;;;;;5006633;28;20024;-67
2023/08/26 01:22:23;;;;;;;25.58;15.38;;;17.10;99.90;;;;;;5006032;28;20037;-67
2023/08/26 01:24:49;;;;;;;21.40;14.10;;;17.10;99.90;;;;;;5007068;28;20033;-67
2023/08/26 01:27:14;;;;;;;29.25;15.27;;;17.10;99.90;;;;;;4996914;28;20109;-67
2023/08/26 01:29:40;;;;;;;22.38;14.30;;;17.10;99.90;;;;;;4997853;28;20030;-66
2023/08/26 01:32:22;;;;;;;24.95;13.25;;;17.10;99.90;;;;;;4996366;28;20411;-67
2023/08/26 01:34:53;;;;;;;21.02;12.07;;;17.10;99.90;;;;;;5001401;28;20030;-67
2023/08/26 01:37:20;;;;;;;19.75;11.13;;;17.00;99.90;;;;;;4999305;28;20026;-64
2023/08/26 01:39:48;;;;;;;22.67;8.07;;;17.00;99.90;;;;;;5000858;28;20478;-67
2023/08/26 01:42:17;;;;;;;10.65;7.10;;;16.90;99.90;;;;;;4996109;28;20073;-67
2023/08/26 01:44:44;;;;;;;9.55;6.50;;;16.90;99.90;;;;;;4995509;28;20063;-67
2023/08/26 01:47:09;;;;;;;13.25;4.93;;;16.90;99.90;;;;;;5004897;28;20024;-67
2023/08/26 01:49:35;;;;;;;8.40;5.18;;;16.80;99.90;;;;;;5001515;28;20034;-67
2023/08/26 01:52:00;;;;;;;8.80;4.57;;;16.70;99.90;;;;;;5001634;28;20141;-67
2023/08/26 01:54:26;;;;;;;5.68;4.63;;;16.70;99.90;;;;;;5000150;28;20042;-67
2023/08/26 01:56:52;;;;;;;7.13;4.28;;;16.60;99.90;;;;;;5015141;28;20076;-67
2023/08/26 01:59:17;;;;;;;10.32;4.03;;;16.60;99.90;;;;;;5000417;28;21197;-66
2023/08/26 02:01:43;;;;;;;7.25;4.47;;;16.50;99.90;;;;;;4996898;28;20117;-66
2023/08/26 02:04:09;;;;;;;11.80;4.38;;;16.50;99.90;;;;;;4999069;28;20112;-66
2023/08/26 02:06:34;;;;;;;16.95;5.00;;;16.50;99.90;;;;;;5005373;28;20500;-66
2023/08/26 02:09:00;;;;;;;5.43;4.03;;;16.50;99.90;;;;;;4981682;28;20085;-66
2023/08/26 02:11:25;;;;;;;5.38;4.07;;;16.40;99.90;;;;;;5002917;28;20044;-66
2023/08/26 02:13:51;;;;;;;15.55;4.85;;;16.40;99.90;;;;;;4999224;28;20085;-66
2023/08/26 02:16:17;;;;;;;7.10;4.75;;;16.30;99.90;;;;;;4997405;28;20082;-66
2023/08/26 02:18:43;;;;;;;10.20;5.22;;;16.30;99.90;;;;;;5003981;28;20111;-66
2023/08/26 02:21:09;;;;;;;6.80;4.68;;;16.20;99.90;;;;;;5004890;28;20049;-66
2023/08/26 02:23:34;;;;;;;8.50;3.85;;;16.10;99.90;;;;;;5004929;28;20038;-66
2023/08/26 02:26:00;;;;;;;8.82;5.43;;;16.00;99.90;;;;;;4996889;28;20049;-66
2023/08/26 02:28:26;;;;;;;6.68;4.53;;;15.90;99.90;;;;;;4995389;28;20054;-66
2023/08/26 02:30:51;;;;;;;9.88;4.65;;;15.80;99.90;;;;;;4997611;28;20045;-66
2023/08/26 02:33:17;;;;;;;5.32;3.55;;;15.70;99.90;;;;;;5003734;28;20034;-66
2023/08/26 02:35:46;;;;;;;10.57;4.70;;;15.60;99.90;;;;;;5003988;28;20082;-66
2023/08/26 02:38:13;;;;;;;8.90;4.22;;;15.50;99.90;;;;;;5004904;28;20029;-66
2023/08/26 02:40:38;;;;;;;8.57;4.28;;;15.30;99.90;;;;;;4995383;28;20152;-65
2023/08/26 02:43:04;;;;;;;10.85;4.28;;;15.30;99.90;;;;;;5000679;28;20121;-66
2023/08/26 02:45:30;;;;;;;6.55;3.65;;;15.10;99.90;;;;;;4995771;28;20087;-65
2023/08/26 02:47:57;;;;;;;9.50;4.30;;;15.00;99.90;;;;;;5005314;28;20124;-66
2023/08/26 02:50:24;;;;;;;9.77;3.80;;;14.90;99.90;;;;;;5000072;28;20057;-65
2023/08/26 02:52:50;;;;;;;14.00;4.35;;;14.80;99.90;;;;;;4999271;28;20049;-66
2023/08/26 02:55:15;;;;;;;11.35;3.90;;;14.70;99.90;;;;;;4999071;28;20030;-66
2023/08/26 02:57:41;;;;;;;5.68;3.42;;;14.60;99.90;;;;;;4995637;28;21838;-66
2023/08/26 03:00:08;;;;;;;7.32;3.70;;;14.50;99.90;;;;;;4998758;28;20030;-66
2023/08/26 03:02:34;;;;;;;11.00;3.78;;;14.40;99.90;;;;;;5000691;28;20037;-65
2023/08/26 03:05:00;;;;;;;9.40;3.45;;;14.40;99.90;;;;;;4998758;28;20062;-66
2023/08/26 03:07:25;;;;;;;6.72;3.75;;;14.30;99.90;;;;;;4992948;28;20073;-66
2023/08/26 03:09:51;;;;;;;12.38;3.30;;;14.20;99.90;;;;;;4993197;28;20050;-66
2023/08/26 03:12:16;;;;;;;7.72;3.70;;;14.10;99.90;;;;;;4997834;28;20037;-66
2023/08/26 03:14:42;;;;;;;7.13;3.08;;;14.10;99.90;;;;;;4996535;28;20049;-66
2023/08/26 03:17:08;;;;;;;8.10;3.40;;;14.00;99.90;;;;;;5004151;28;20025;-65
2023/08/26 03:19:33;;;;;;;9.73;3.45;;;13.90;99.90;;;;;;4999411;28;20026;-67
2023/08/26 03:21:59;;;;;;;5.32;3.40;;;13.80;99.90;;;;;;5002309;28;20022;-66
2023/08/26 03:24:26;;;;;;;5.95;3.13;;;13.80;99.90;;;;;;5001018;28;20034;-66
2023/08/26 03:26:51;;;;;;;5.60;3.28;;;13.70;99.90;;;;;;5001477;28;20037;-66
2023/08/26 03:29:17;;;;;;;9.63;3.17;;;13.60;99.90;;;;;;5001213;28;20030;-66
2023/08/26 03:31:45;;;;;;;10.90;3.50;;;13.50;99.90;;;;;;5000147;28;20097;-66
2023/08/26 03:34:11;;;;;;;7.28;2.85;;;13.50;99.90;;;;;;5000834;28;20084;-66
2023/08/26 03:36:36;;;;;;;7.43;2.97;;;13.50;99.90;;;;;;4998202;28;20038;-66
2023/08/26 03:39:02;;;;;;;6.20;2.88;;;13.50;99.90;;;;;;4999627;28;20038;-66
2023/08/26 03:41:28;;;;;;;11.65;4.28;;;13.40;99.90;;;;;;4997319;28;20097;-65
2023/08/26 03:43:53;;;;;;;10.95;3.83;;;13.30;99.90;;;;;;4995774;28;20034;-66
2023/08/26 03:46:19;;;;;;;7.85;3.70;;;13.20;99.90;;;;;;4996490;28;20121;-66
2023/08/26 03:48:45;;;;;;;9.98;3.90;;;13.20;99.90;;;;;;4999856;28;20030;-66
2023/08/26 03:51:10;;;;;;;15.68;3.95;;;13.20;99.90;;;;;;5000944;28;20125;-66
2023/08/26 03:53:36;;;;;;;8.85;3.80;;;13.20;99.90;;;;;;5002849;28;20040;-66
2023/08/26 03:56:01;;;;;;;6.93;3.67;;;13.10;99.90;;;;;;4999097;28;20571;-66
2023/08/26 03:58:27;;;;;;;6.97;4.03;;;13.10;99.90;;;;;;5004420;28;20065;-66
2023/08/26 04:01:06;;;;;;;11.73;4.53;;;13.10;99.90;;;;;;5003700;28;20060;-66
2023/08/26 04:03:33;;;;;;;7.00;4.28;;;13.00;99.90;;;;;;5002744;28;20037;-66
2023/08/26 04:06:00;;;;;;;11.02;4.60;;;13.00;99.90;;;;;;4999010;28;20611;-66
2023/08/26 04:08:27;;;;;;;14.02;4.88;;;12.90;99.90;;;;;;4983098;28;20054;-66
2023/08/26 04:10:57;;;;;;;13.48;4.78;;;12.80;99.90;;;;;;4999365;28;20037;-65
2023/08/26 04:13:24;;;;;;;8.65;4.40;;;12.80;99.90;;;;;;5000471;28;20099;-65
2023/08/26 04:15:53;;;;;;;10.73;4.15;;;12.80;99.90;;;;;;5001901;28;20041;-66
2023/08/26 04:18:19;;;;;;;10.18;4.70;;;12.70;99.90;;;;;;5004609;28;20056;-66
2023/08/26 04:20:44;;;;;;;13.65;5.32;;;12.70;99.90;;;;;;4999833;28;20091;-66
2023/08/26 04:23:10;;;;;;;8.63;4.75;;;12.60;99.90;;;;;;4999027;28;20034;-65
2023/08/26 04:25:38;;;;;;;12.38;5.13;;;12.60;99.90;;;;;;4996930;28;20042;-66
2023/08/26 04:28:04;;;;;;;9.95;5.35;;;12.60;99.90;;;;;;5002144;28;20038;-67
2023/08/26 04:30:30;;;;;;;13.20;4.93;;;12.50;99.90;;;;;;4997334;28;21240;-66
2023/08/26 04:32:56;;;;;;;10.75;5.70;;;12.50;99.90;;;;;;4998101;28;20050;-66
2023/08/26 04:35:22;;;;;;;14.23;5.22;;;12.50;99.90;;;;;;4988737;28;20103;-65
2023/08/26 04:37:47;;;;;;;13.52;5.25;;;12.50;99.90;;;;;;5005757;28;20256;-66
2023/08/26 04:40:13;;;;;;;10.43;4.80;;;12.40;99.90;;;;;;5003859;28;20393;-66
2023/08/26 04:42:42;;;;;;;6.38;4.70;;;12.40;99.90;;;;;;5004791;28;20061;-67
2023/08/26 04:45:09;;;;;;;9.93;5.78;;;12.40;99.90;;;;;;5000228;28;20044;-66
2023/08/26 04:47:36;;;;;;;11.63;4.95;;;12.40;99.90;;;;;;4998026;28;20034;-66
2023/08/26 04:50:03;;;;;;;8.82;4.30;;;12.40;99.90;;;;;;5004508;28;20034;-66
2023/08/26 04:52:29;;;;;;;7.55;4.15;;;12.40;99.90;;;;;;5004058;28;20491;-66
2023/08/26 04:54:55;;;;;;;14.90;4.82;;;12.40;99.90;;;;;;5005605;28;20041;-66
2023/08/26 04:57:20;;;;;;;11.30;3.95;;;12.50;99.90;;;;;;5006890;28;20010;-66
2023/08/26 04:59:46;;;;;;;11.40;4.80;;;12.50;99.90;;;;;;5003427;28;20038;-66
2023/08/26 05:02:12;;;;;;;12.00;3.72;;;12.60;99.90;;;;;;5005427;28;20025;-66
2023/08/26 05:04:37;;;;;;;8.80;3.60;;;12.60;99.90;;;;;;5007200;28;20041;-66
2023/08/26 05:07:03;;;;;;;5.15;2.88;;;12.60;99.90;;;;;;5005633;28;20026;-64
2023/08/26 05:09:29;;;;;;;5.55;2.88;;;12.70;99.90;;;;;;4990220;28;20426;-66
2023/08/26 05:11:58;;;;;;;5.15;2.92;;;12.70;99.90;;;;;;5007146;28;20026;-67
2023/08/26 05:14:26;;;;;;;3.75;2.55;;;12.70;99.90;;;;;;5004497;28;20030;-66
2023/08/26 05:16:51;;;;;;;8.70;2.65;;;12.80;99.90;;;;;;5004979;28;20045;-66
2023/08/26 05:19:17;;;;;;;3.45;2.22;;;12.80;99.90;;;;;;5006564;28;20411;-65
2023/08/26 05:21:43;;;;;;;7.65;2.72;;;12.90;99.90;;;;;;5003781;28;20152;-67
2023/08/26 05:24:08;;;;;;;5.05;2.03;;;12.90;99.90;;;;;;4999857;28;20031;-66
2023/08/26 05:26:34;;;;;;;9.68;2.78;;;13.00;99.90;;;;;;5003930;28;20994;-66
2023/08/26 05:28:59;;;;;;;5.07;2.35;;;13.10;99.90;;;;;;5002866;28;20033;-66
2023/08/26 05:31:26;;;;;;;3.75;2.35;;;13.20;99.90;;;;;;4988683;28;20045;-66
2023/08/26 05:33:52;;;;;;;4.28;2.50;;;13.30;99.90;;;;;;5004397;28;20033;-67
2023/08/26 05:36:18;;;;;;;5.88;3.08;;;13.40;99.90;;;;;;5000845;28;20030;-66
2023/08/26 05:38:43;;;;;;;4.30;2.20;;;13.50;99.90;;;;;;4999379;28;20097;-66
2023/08/26 05:41:09;;;;;;;2.90;1.95;;;13.70;99.90;;;;;;5005315;28;20539;-66
2023/08/26 05:43:35;;;;;;;6.03;2.50;;;13.90;99.90;;;;;;5020875;28;20503;-66
2023/08/26 05:46:00;;;;;;;7.03;3.30;;;14.00;99.90;;;;;;4992936;28;20088;-66
2023/08/26 05:48:26;;;;;;;3.60;1.85;;;14.30;99.90;;;;;;5002255;28;20057;-66
2023/08/26 05:50:51;;;;;;;7.80;2.05;;;14.40;99.90;;;;;;5004392;28;20495;-67
2023/08/26 05:53:17;;;;;;;2.08;1.17;;;14.60;99.90;;;;;;5001964;28;20087;-67
2023/08/26 05:55:43;;;;;;;5.43;1.30;;;14.70;99.90;;;;;;5001727;28;20484;-67
2023/08/26 05:58:09;;;;;;;1.55;0.93;;;15.00;99.90;;;;;;5002602;28;20063;-66
2023/08/26 06:00:35;;;;;;;5.00;1.40;;;15.60;99.90;;;;;;5002833;28;20507;-66
2023/08/26 06:03:01;;;;;;;5.20;1.52;;;16.40;99.90;;;;;;5002332;28;20430;-66
2023/08/26 06:05:27;;;;;;;4.38;1.88;;;16.70;99.90;;;;;;5002137;28;20026;-65
2023/08/26 06:07:53;;;;;;;3.22;1.23;;;17.30;99.90;;;;;;5001852;28;20025;-66
2023/08/26 06:10:18;;;;;;;1.95;0.98;;;17.80;99.90;;;;;;4988901;28;20046;-66
2023/08/26 06:12:44;;;;;;;4.32;1.30;;;18.30;99.90;;;;;;5004113;28;20064;-66
2023/08/26 06:15:10;;;;;;;2.65;0.80;;;18.80;99.90;;;;;;4994874;28;20041;-67
2023/08/26 06:17:37;;;;;;;1.73;0.95;;;19.10;99.90;;;;;;4991319;28;20022;-67
2023/08/26 06:20:05;;;;;;;5.35;1.50;;;19.20;99.90;;;;;;4995963;28;20032;-67
2023/08/26 06:22:31;;;;;;;3.33;1.10;;;18.50;99.90;;;;;;5004271;28;20034;-67
2023/08/26 06:24:58;;;;;;;3.00;0.93;;;18.00;99.90;;;;;;5006553;28;20037;-67
2023/08/26 06:27:25;;;;;;;5.95;1.08;;;17.80;99.90;;;;;;5005223;28;20064;-65
2023/08/26 06:29:55;;;;;;;3.50;1.17;;;17.60;99.90;;;;;;5004601;28;20109;-68
2023/08/26 06:32:21;;;;;;;1.73;0.90;;;17.70;99.90;;;;;;5002982;28;21031;-67
2023/08/26 06:34:46;;;;;;;11.00;1.40;;;18.00;99.90;;;;;;4989758;28;20038;-67
2023/08/26 06:37:13;;;;;;;2.83;0.70;;;18.80;99.90;;;;;;4995969;28;20076;-67
2023/08/26 06:39:39;;;;;;;4.07;0.90;;;19.40;99.90;;;;;;5004765;28;20026;-67
2023/08/26 06:42:05;;;;;;;1.20;0.80;;;20.40;99.90;;;;;;5004626;28;20446;-65
2023/08/26 06:44:30;;;;;;;4.15;1.20;;;21.30;99.90;;;;;;5002766;28;20026;-65
2023/08/26 06:46:56;;;;;;;1.98;0.90;;;21.80;99.90;;;;;;5002868;28;20628;-66
2023/08/26 06:49:21;;;;;;;2.75;1.08;;;22.50;98.40;;;;;;5001115;28;20038;-65
2023/08/26 06:51:47;;;;;;;2.17;0.80;;;23.40;95.70;;;;;;5005672;28;20045;-66
2023/08/26 06:54:12;;;;;;;2.08;0.98;;;23.40;95.00;;;;;;4993892;28;20041;-65
2023/08/26 06:56:38;;;;;;;4.50;1.23;;;23.70;94.80;;;;;;5005418;28;20042;-66
2023/08/26 06:59:04;;;;;;;4.15;1.38;;;23.60;94.30;;;;;;5002888;28;20028;-66
2023/08/26 07:01:31;;;;;;;3.00;1.00;;;23.70;94.20;;;;;;5005815;28;20026;-65
2023/08/26 07:04:06;;;;;;;2.92;0.90;;;23.80;93.80;;;;;;5001404;28;20026;-65
2023/08/26 07:06:33;;;;;;;3.78;1.15;;;23.70;93.00;;;;;;5003738;28;20034;-65
2023/08/26 07:08:58;;;;;;;1.27;0.90;;;23.90;92.90;;;;;;4990978;28;20062;-65
2023/08/26 07:11:24;;;;;;;3.45;1.15;;;24.10;92.40;;;;;;4984149;28;20073;-64
2023/08/26 07:13:49;;;;;;;2.30;1.10;;;24.40;92.00;;;;;;5002784;28;20034;-65
2023/08/26 07:16:15;;;;;;;1.95;0.90;;;25.00;91.70;;;;;;5002945;28;20567;-65
2023/08/26 07:18:40;;;;;;;6.00;1.30;;;25.20;89.40;;;;;;4997069;28;20085;-65
2023/08/26 07:21:06;;;;;;;6.07;0.80;;;25.00;91.10;;;;;;5004737;28;20014;-66
2023/08/26 07:23:35;;;;;;;3.85;0.95;;;24.90;90.80;;;;;;4995315;28;20546;-68
2023/08/26 07:26:01;;;;;;;3.38;1.05;;;24.80;91.40;;;;;;5004701;28;20030;-66
2023/08/26 07:28:26;;;;;;;2.25;0.90;;;25.00;90.60;;;;;;5003506;28;20557;-66
2023/08/26 07:30:53;;;;;;;2.78;1.02;;;25.10;90.20;;;;;;5002402;28;20088;-67
2023/08/26 07:33:19;;;;;;;2.00;0.73;;;24.90;90.20;;;;;;4996128;28;20030;-66
2023/08/26 07:35:45;;;;;;;2.38;1.00;;;25.20;90.00;;;;;;5001114;28;20033;-65
2023/08/26 07:38:10;;;;;;;1.38;0.60;;;26.00;91.80;;;;;;4996490;28;20044;-66
2023/08/26 07:40:36;;;;;;;1.13;0.65;;;26.30;86.20;;;;;;5004787;28;20026;-66
2023/08/26 07:43:03;;;;;;;2.42;0.52;;;26.20;84.00;;;;;;5002008;28;20027;-66
2023/08/26 07:45:28;;;;;;;2.15;0.70;;;25.90;84.70;;;;;;4989363;28;20148;-66
2023/08/26 07:47:54;;;;;;;2.42;0.90;;;25.60;85.60;;;;;;5002976;28;20077;-66
2023/08/26 07:50:19;;;;;;;4.85;0.85;;;25.70;87.40;;;;;;4998577;28;20124;-66
2023/08/26 07:52:45;;;;;;;3.67;0.90;;;26.10;86.90;;;;;;5000434;28;20044;-66
2023/08/26 07:55:11;;;;;;;2.45;1.00;;;26.40;84.80;;;;;;5002577;28;20559;-67
2023/08/26 07:57:37;;;;;;;1.02;0.60;;;26.80;82.40;;;;;;5002112;28;20306;-67
2023/08/26 08:00:03;;;;;;;1.67;0.60;;;27.10;81.20;;;;;;5002385;28;20033;-65
2023/08/26 08:02:29;;;;;;;8.02;1.05;;;27.20;83.50;;;;;;4998281;28;20030;-66
2023/08/26 08:04:55;;;;;;;2.70;0.82;;;27.70;81.50;;;;;;5003485;28;20072;-66
2023/08/26 08:07:21;;;;;;;1.10;0.60;;;27.80;78.20;;;;;;5001875;28;20074;-66
2023/08/26 08:09:46;;;;;;;3.90;0.80;;;26.60;77.40;;;;;;4980064;28;20065;-66
2023/08/26 08:12:14;;;;;;;3.30;0.82;;;25.90;82.70;;;;;;5002861;28;20056;-64
2023/08/26 08:14:40;;;;;;;4.32;0.93;;;25.10;81.50;;;;;;5004347;28;20033;-66
2023/08/26 08:17:06;;;;;;;0.77;0.50;;;25.20;82.00;;;;;;5008447;28;20022;-67
2023/08/26 08:19:37;;;;;;;3.33;0.60;;;25.00;82.30;;;;;;5003648;28;20414;-66
2023/08/26 08:22:03;;;;;;;2.50;0.82;;;25.40;83.00;;;;;;5007960;28;20775;-66
2023/08/26 08:24:28;;;;;;;1.67;0.60;;;26.10;79.90;;;;;;5000052;28;20030;-65
2023/08/26 08:26:54;;;;;;;0.57;0.55;;;26.00;80.40;;;;;;5006364;28;20037;-66
2023/08/26 08:29:20;;;;;;;1.23;0.70;;;25.80;79.50;;;;;;5006192;28;20033;-65
2023/08/26 08:31:45;;;;;;;3.00;0.90;;;25.70;78.30;;;;;;5007586;28;20075;-66
2023/08/26 08:34:11;;;;;;;2.22;0.68;;;25.60;81.50;;;;;;4995955;28;20423;-66
2023/08/26 08:36:36;;;;;;;2.65;0.77;;;25.60;81.30;;;;;;5005964;28;20480;-66
2023/08/26 08:39:03;;;;;;;1.77;0.70;;;26.00;81.70;;;;;;5005889;28;20159;-66
2023/08/26 08:41:30;;;;;;;2.63;0.80;;;26.10;78.10;;;;;;5001336;28;20029;-66
2023/08/26 08:44:00;;;;;;;1.88;0.70;;;26.10;77.50;;;;;;5008792;28;20072;-67
2023/08/26 08:46:27;;;;;;;2.92;0.90;;;26.80;81.50;;;;;;5004052;28;20036;-66
2023/08/26 08:48:52;;;;;;;1.75;0.57;;;26.60;77.60;;;;;;5004762;28;20034;-67
2023/08/26 08:51:20;;;;;;;3.20;0.65;;;26.50;77.90;;;;;;5005256;28;20083;-66
2023/08/26 08:53:46;;;;;;;6.28;0.80;;;27.00;77.60;;;;;;5000713;28;20088;-66
2023/08/26 08:56:16;;;;;;;3.00;0.50;;;26.90;74.60;;;;;;5009298;28;20022;-66
2023/08/26 08:58:47;;;;;;;1.00;0.63;;;26.70;76.40;;;;;;5007259;28;20041;-70
2023/08/26 09:01:13;;;;;;;1.88;0.55;;;26.80;77.30;;;;;;5006034;28;20057;-66
2023/08/26 09:03:40;;;;;;;0.90;0.43;;;26.20;74.70;;;;;;5004502;28;20037;-66
2023/08/26 09:06:05;;;;;;;1.30;0.60;;;25.70;74.50;;;;;;5001927;28;20025;-66
2023/08/26 09:08:31;;;;;;;0.70;0.60;;;25.40;78.40;;;;;;4999158;28;20030;-67
2023/08/26 09:10:57;;;;;;;2.25;0.70;;;25.50;79.90;;;;;;4989354;28;20073;-66
2023/08/26 09:13:22;;;;;;;3.67;0.60;;;26.20;83.40;;;;;;5004683;28;20069;-68
2023/08/26 09:15:48;;;;;;;1.85;0.70;;;26.30;78.90;;;;;;5002032;28;20064;-66
2023/08/26 09:18:15;;;;;;;2.83;0.60;;;26.60;75.80;;;;;;5006984;28;20447;-66
2023/08/26 09:20:41;;;;;;;1.88;0.50;;;26.40;75.50;;;;;;5005168;28;20033;-66
2023/08/26 09:23:10;;;;;;;2.40;0.70;;;26.30;77.00;;;;;;5004968;28;20029;-66
2023/08/26 09:25:35;;;;;;;1.23;0.60;;;26.20;77.80;;;;;;5003995;28;20487;-66
2023/08/26 09:28:03;;;;;;;0.75;0.57;;;26.40;79.00;;;;;;5005788;28;20116;-67
2023/08/26 09:30:29;;;;;;;2.05;0.70;;;26.70;76.00;;;;;;5004076;28;20027;-66
2023/08/26 09:32:55;;;;;;;1.15;0.52;;;26.70;74.10;;;;;;5006578;28;20519;-66
2023/08/26 09:35:21;;;;;;;4.07;0.60;;;26.70;75.10;;;;;;5001527;28;20029;-66
2023/08/26 09:37:57;;;;;;;1.42;0.50;;;26.70;77.20;;;;;;5002589;28;20065;-66
2023/08/26 09:40:24;;;;;;;1.17;0.50;;;27.00;75.90;;;;;;4994909;28;20628;-66
2023/08/26 09:42:51;;;;;;;1.50;0.50;;;27.00;77.00;;;;;;5005614;28;20109;-66
2023/08/26 09:45:20;;;;;;;0.50;0.50;;;26.80;75.80;;;;;;5005206;28;20435;-67
2023/08/26 09:47:48;;;;;;;2.00;0.80;;;26.20;73.70;;;;;;5006225;28;20030;-66
2023/08/26 09:50:14;;;;;;;1.50;0.50;;;25.70;75.20;;;;;;5001898;28;20030;-66
2023/08/26 09:52:46;;;;;;;1.17;0.57;;;25.50;75.90;;;;;;5004957;28;20028;-67
2023/08/26 09:55:12;;;;;;;1.90;0.70;;;25.90;79.50;;;;;;4987154;28;20041;-67
2023/08/26 09:57:38;;;;;;;1.55;0.50;;;26.00;77.80;;;;;;5006989;28;20022;-66
2023/08/26 10:00:10;;;;;;;3.03;0.50;;;26.20;78.20;;;;;;5006462;28;20115;-66
2023/08/26 10:02:37;;;;;;;2.10;0.60;;;26.20;75.40;;;;;;5001473;28;20499;-66
2023/08/26 10:05:07;;;;;;;3.95;0.70;;;25.80;74.70;;;;;;5001606;28;20034;-65
2023/08/26 10:07:34;;;;;;;0.85;0.60;;;25.30;77.80;;;;;;5000250;28;20037;-66
2023/08/26 10:10:26;;;;;;;2.20;0.60;;;25.40;80.30;;;;;;4998751;28;20570;-69
2023/08/26 10:12:59;;;;;;;3.00;0.88;;;25.00;78.20;;;;;;5000823;28;20022;-65
2023/08/26 10:15:28;;;;;;;3.03;0.98;;;24.80;78.10;;;;;;4995514;28;20771;-63
2023/08/26 10:17:56;;;;;;;1.38;0.63;;;25.10;77.40;;;;;;5002079;28;20100;-65
2023/08/26 10:20:22;;;;;;;1.02;0.90;;;25.10;78.10;;;;;;5005131;28;20026;-66
2023/08/26 10:22:48;;;;;;;1.10;0.63;;;24.90;79.80;;;;;;5003395;28;20483;-66
2023/08/26 10:25:15;;;;;;;2.92;0.70;;;24.80;78.90;;;;;;5003892;28;20092;-66
2023/08/26 10:27:42;;;;;;;1.05;0.50;;;24.90;79.50;;;;;;5003720;28;20076;-66
2023/08/26 10:30:08;;;;;;;1.85;0.70;;;24.50;78.50;;;;;;5002024;28;20041;-66
2023/08/26 10:32:43;;;;;;;1.38;0.70;;;24.50;81.30;;;;;;4993993;28;20034;-66
2023/08/26 10:35:12;;;;;;;1.17;0.60;;;24.30;82.90;;;;;;5003348;28;20439;-65
2023/08/26 10:37:39;;;;;;;0.60;0.45;;;24.20;79.10;;;;;;5002732;28;20386;-66
2023/08/26 10:40:08;;;;;;;0.73;0.43;;;24.10;78.50;;;;;;4992755;28;20208;-66
2023/08/26 10:42:35;;;;;;;1.98;0.75;;;24.10;79.90;;;;;;4997517;28;20025;-66
2023/08/26 10:45:02;;;;;;;0.82;0.47;;;24.20;78.00;;;;;;4999512;28;20053;-65
2023/08/26 10:47:41;;;;;;;2.90;0.75;;;24.10;80.60;;;;;;5000811;28;20039;-64
2023/08/26 10:50:22;;;;;;;3.40;0.60;;;24.50;82.20;;;;;;5004451;28;20030;-66
2023/08/26 10:52:54;;;;;;;0.90;0.50;;;24.80;80.00;;;;;;4997226;28;20174;-66
2023/08/26 10:55:26;;;;;;;1.88;0.60;;;24.90;80.30;;;;;;4996469;28;20144;-66
2023/08/26 10:58:12;;;;;;;1.48;0.50;;;24.90;78.40;;;;;;5002112;28;21010;-66
2023/08/26 11:00:42;;;;;;;3.78;0.50;;;25.20;81.40;;;;;;4997683;28;20292;-66
2023/08/26 11:03:10;;;;;;;2.45;0.43;;;25.00;74.20;;;;;;5003738;28;20471;-66
2023/08/26 11:05:37;;;;;;;1.42;0.38;;;24.60;78.10;;;;;;4999955;28;20505;-66
2023/08/26 11:08:04;;;;;;;0.50;0.50;;;24.20;81.20;;;;;;4998570;28;20086;-66
2023/08/26 11:10:31;;;;;;;4.50;0.50;;;24.20;81.90;;;;;;4984094;28;20058;-66
2023/08/26 11:12:57;;;;;;;0.85;0.50;;;23.80;80.30;;;;;;5000464;28;20402;-66
2023/08/26 11:15:23;;;;;;;1.27;0.57;;;24.10;84.00;;;;;;4998882;28;20026;-66
2023/08/26 11:17:49;;;;;;;1.58;0.47;;;24.20;81.90;;;;;;5002918;28;20037;-66
2023/08/26 11:20:19;;;;;;;1.08;0.38;;;24.10;81.00;;;;;;5004867;28;20025;-65
2023/08/26 11:22:45;;;;;;;0.73;0.50;;;23.90;80.70;;;;;;5000162;28;21190;-66
2023/08/26 11:25:15;;;;;;;0.85;0.60;;;24.20;81.50;;;;;;4997338;28;20072;-66
2023/08/26 11:27:41;;;;;;;1.35;0.60;;;24.20;81.60;;;;;;5002541;28;20220;-66
2023/08/26 11:30:08;;;;;;;1.27;0.75;;;23.90;79.80;;;;;;5004142;28;20550;-66
2023/08/26 11:32:38;;;;;;;3.50;0.55;;;24.10;84.20;;;;;;5003472;28;20483;-66
2023/08/26 11:35:05;;;;;;;0.85;0.60;;;24.20;79.80;;;;;;4997794;28;20092;-66
2023/08/26 11:37:42;;;;;;;1.10;0.43;;;23.70;81.10;;;;;;5000072;28;20049;-65
2023/08/26 11:40:08;;;;;;;2.45;0.60;;;23.40;82.20;;;;;;5003106;28;21440;-66
2023/08/26 11:42:34;;;;;;;1.17;0.50;;;23.30;84.20;;;;;;5004350;28;20037;-66
2023/08/26 11:44:59;;;;;;;0.93;0.50;;;23.30;83.60;;;;;;5005470;28;20034;-66
2023/08/26 11:47:25;;;;;;;0.80;0.50;;;23.40;83.70;;;;;;5006514;28;20458;-66
2023/08/26 11:49:58;;;;;;;1.40;0.43;;;23.50;83.40;;;;;;5007464;28;20128;-65
2023/08/26 11:52:35;;;;;;;1.38;0.68;;;23.60;83.40;;;;;;5008762;28;20420;-66
2023/08/26 11:55:05;;;;;;;1.00;0.40;;;23.80;83.60;;;;;;5008632;28;20054;-66
2023/08/26 11:57:35;;;;;;;0.47;0.43;;;24.10;83.60;;;;;;5008480;28;20034;-65
2023/08/26 12:00:12;;;;;;;2.88;0.68;;;24.30;81.20;;;;;;5008953;28;20028;-67
2023/08/26 12:02:38;;;;;;;0.68;0.40;;;24.70;81.10;;;;;;5004498;28;20021;-66
2023/08/26 12:05:04;;;;;;;1.90;0.47;;;25.10;78.30;;;;;;5008589;28;20025;-66
2023/08/26 12:07:30;;;;;;;1.10;0.38;;;24.90;80.30;;;;;;5007990;28;20060;-66
2023/08/26 12:09:57;;;;;;;1.73;0.52;;;24.90;80.50;;;;;;5008645;28;20057;-66
2023/08/26 12:12:23;;;;;;;0.77;0.50;;;24.70;79.30;;;;;;4985784;28;20146;-66
2023/08/26 12:14:49;;;;;;;1.55;0.70;;;24.50;78.00;;;;;;5004965;28;20092;-66
2023/08/26 12:17:15;;;;;;;3.05;0.60;;;24.10;83.00;;;;;;4980998;28;20027;-66
2023/08/26 12:19:42;;;;;;;1.05;0.60;;;24.00;82.70;;;;;;5006550;28;20029;-66
2023/08/26 12:22:08;;;;;;;0.93;0.60;;;23.70;81.20;;;;;;4997594;28;20499;-66
2023/08/26 12:24:38;;;;;;;2.30;0.90;;;23.60;84.50;;;;;;4998968;28;20449;-65
2023/08/26 12:27:08;;;;;;;2.75;0.63;;;23.60;82.90;;;;;;5002542;28;20038;-66
2023/08/26 12:29:34;;;;;;;1.77;0.90;;;23.50;83.10;;;;;;5007471;28;20022;-66
2023/08/26 12:32:00;;;;;;;0.65;0.50;;;23.60;85.80;;;;;;5008260;28;20039;-67
2023/08/26 12:34:25;;;;;;;1.65;0.63;;;23.50;82.20;;;;;;5006927;28;20057;-65
2023/08/26 12:36:51;;;;;;;1.25;0.60;;;23.60;81.20;;;;;;5004413;28;20064;-66
2023/08/26 12:39:16;;;;;;;4.13;1.00;;;23.60;84.60;;;;;;4999137;28;20104;-65
2023/08/26 12:41:42;;;;;;;3.85;0.80;;;23.40;87.20;;;;;;5000628;28;20124;-66